Time;durP1;ratioP1;P1;durP2;ratioP2;P2;SDS_P1;SDS_P2;PMS_P1;PMS_P2;Temp;Humidity;BMP_temperature;BMP_pressure;BME280_temperature;BME280_humidity;BME280_pressure;Samples;Min_cycle;Max_cycle;Signal;HPM_P1;HPM_P2
2024/03/27 00:00:01;;;;;;;;;;;;;;;22.13;34.78;98355.81;4097713;29;19929;-69
2024/03/27 00:02:02;;;;;;;;;;;;;;;22.12;35.06;98354.16;4098247;29;19928;-70
2024/03/27 00:04:03;;;;;;;;;;;;;;;22.13;34.94;98358.50;4097835;29;20580;-70
2024/03/27 00:06:04;;;;;;;;;;;;;;;22.15;34.80;98352.94;4097949;29;19922;-69
2024/03/27 00:08:05;;;;;;;;;;;;;;;22.16;34.92;98349.25;4098121;29;19922;-70
2024/03/27 00:10:07;;;;;;;;;;;;;;;22.15;34.88;98340.41;4097898;29;20576;-69
2024/03/27 00:12:09;;;;;;;;;;;;;;;22.14;34.89;98329.88;4098100;29;19923;-69
2024/03/27 00:14:11;;;;;;;;;;;;;;;22.14;35.04;98338.75;4097891;29;19922;-69
2024/03/27 00:16:12;;;;;;;;;;;;;;;22.15;34.88;98334.22;4097789;29;19929;-70
2024/03/27 00:18:13;;;;;;;;;;;;;;;22.13;34.96;98320.22;4097626;29;19926;-71
2024/03/27 00:20:14;;;;;;;;;;;;;;;22.12;34.99;98314.00;4097713;29;19927;-69
2024/03/27 00:22:15;;;;;;;;;;;;;;;22.12;35.00;98326.56;4097839;29;19926;-70
2024/03/27 00:24:16;;;;;;;;;;;;;;;22.11;34.85;98323.03;4098065;29;19933;-69
2024/03/27 00:26:17;;;;;;;;;;;;;;;22.09;34.97;98319.75;4097871;29;19922;-69
2024/03/27 00:28:18;;;;;;;;;;;;;;;22.07;34.54;98311.06;4097734;29;19922;-69
2024/03/27 00:30:19;;;;;;;;;;;;;;;22.08;35.01;98304.69;4097948;29;20022;-69
2024/03/27 00:32:21;;;;;;;;;;;;;;;22.09;34.90;98302.84;4097737;29;19937;-70
2024/03/27 00:34:22;;;;;;;;;;;;;;;22.12;34.88;98302.47;4097858;29;20362;-69
2024/03/27 00:36:23;;;;;;;;;;;;;;;22.12;34.89;98311.31;4100046;28;19930;-70
2024/03/27 00:38:24;;;;;;;;;;;;;;;22.12;34.88;98315.88;4100610;29;19926;-69
2024/03/27 00:40:25;;;;;;;;;;;;;;;22.09;34.88;98322.44;4100694;29;19922;-69
2024/03/27 00:42:26;;;;;;;;;;;;;;;22.08;34.59;98320.75;4100446;29;19923;-70
2024/03/27 00:44:27;;;;;;;;;;;;;;;22.07;34.89;98319.09;4100591;29;19923;-70
2024/03/27 00:46:29;;;;;;;;;;;;;;;22.07;34.87;98327.13;4100492;29;19948;-70
2024/03/27 00:48:30;;;;;;;;;;;;;;;22.07;34.55;98323.63;4100344;29;19929;-70
2024/03/27 00:50:31;;;;;;;;;;;;;;;22.07;34.61;98311.06;4100376;29;19923;-70
2024/03/27 00:52:32;;;;;;;;;;;;;;;22.05;34.79;98307.75;4100292;29;19929;-70
2024/03/27 00:54:34;;;;;;;;;;;;;;;22.05;34.54;98314.97;4100340;29;19927;-70
2024/03/27 00:56:37;;;;;;;;;;;;;;;22.06;34.77;98314.75;4100368;29;20028;-70
2024/03/27 00:58:38;;;;;;;;;;;;;;;22.05;34.56;98323.00;4100100;29;20393;-69
2024/03/27 01:00:39;;;;;;;;;;;;;;;22.05;34.88;98321.13;4100190;29;19922;-69
2024/03/27 01:02:42;;;;;;;;;;;;;;;22.07;34.66;98329.81;4100521;29;19922;-69
2024/03/27 01:04:43;;;;;;;;;;;;;;;22.06;34.50;98327.31;4100160;29;19922;-69
2024/03/27 01:06:44;;;;;;;;;;;;;;;22.03;34.50;98315.16;4100188;29;19932;-69
2024/03/27 01:08:45;;;;;;;;;;;;;;;22.02;34.50;98329.53;4100221;29;19928;-69
2024/03/27 01:10:46;;;;;;;;;;;;;;;22.02;34.86;98325.00;4084500;29;20099;-69
2024/03/27 01:12:47;;;;;;;;;;;;;;;22.02;34.75;98316.97;4100042;29;19928;-69
2024/03/27 01:14:50;;;;;;;;;;;;;;;22.01;34.63;98320.66;4100212;29;19922;-70
2024/03/27 01:16:51;;;;;;;;;;;;;;;22.01;34.55;98325.22;4100192;29;19929;-69
2024/03/27 01:18:52;;;;;;;;;;;;;;;22.00;34.64;98328.91;4083950;29;19923;-69
2024/03/27 01:20:53;;;;;;;;;;;;;;;21.99;34.82;98321.88;4099833;29;20374;-69
2024/03/27 01:22:54;;;;;;;;;;;;;;;21.99;34.55;98321.88;4084079;29;20329;-69
2024/03/27 01:24:55;;;;;;;;;;;;;;;22.01;34.51;98322.53;4099995;29;19941;-69
2024/03/27 01:26:56;;;;;;;;;;;;;;;21.99;34.50;98327.22;4099514;29;20409;-69
2024/03/27 01:28:57;;;;;;;;;;;;;;;22.00;34.54;98331.56;4099953;29;20409;-69
2024/03/27 01:30:58;;;;;;;;;;;;;;;21.99;34.42;98338.78;4099888;29;19926;-69
2024/03/27 01:32:59;;;;;;;;;;;;;;;22.00;34.45;98348.44;4099779;29;20432;-69
2024/03/27 01:35:00;;;;;;;;;;;;;;;21.99;34.46;98349.50;4083967;29;19922;-68
2024/03/27 01:37:01;;;;;;;;;;;;;;;22.00;34.39;98347.63;4099616;29;19969;-70
2024/03/27 01:39:03;;;;;;;;;;;;;;;21.97;34.71;98330.09;4099761;29;19922;-69
2024/03/27 01:41:05;;;;;;;;;;;;;;;21.98;34.63;98338.94;4083613;29;19929;-70
2024/03/27 01:43:06;;;;;;;;;;;;;;;21.96;34.62;98335.66;4099777;29;19926;-70
2024/03/27 01:45:11;;;;;;;;;;;;;;;21.94;34.64;98325.13;4099743;29;19929;-70
2024/03/27 01:47:12;;;;;;;;;;;;;;;21.92;34.67;98324.50;4099014;28;19926;-70
2024/03/27 01:49:14;;;;;;;;;;;;;;;21.91;34.61;98332.69;4099674;29;19922;-69
2024/03/27 01:51:15;;;;;;;;;;;;;;;21.90;34.78;98337.22;4099619;29;19948;-70
2024/03/27 01:53:17;;;;;;;;;;;;;;;21.92;34.79;98326.31;4099594;29;19922;-70
2024/03/27 01:55:18;;;;;;;;;;;;;;;21.92;34.46;98326.31;4099169;29;19929;-69
2024/03/27 01:57:21;;;;;;;;;;;;;;;21.93;34.78;98330.66;4099542;29;19929;-69
2024/03/27 01:59:22;;;;;;;;;;;;;;;21.90;34.75;98326.50;4083529;29;19923;-69
2024/03/27 02:01:24;;;;;;;;;;;;;;;21.91;34.79;98325.50;4099252;29;19923;-70
2024/03/27 02:03:25;;;;;;;;;;;;;;;21.91;34.46;98322.81;4099380;29;19923;-69
2024/03/27 02:05:26;;;;;;;;;;;;;;;21.90;34.74;98326.50;4099424;29;19923;-69
2024/03/27 02:07:28;;;;;;;;;;;;;;;21.89;34.60;98321.34;4099495;29;19924;-68
2024/03/27 02:09:29;;;;;;;;;;;;;;;21.88;34.54;98309.00;4099074;29;19928;-67
2024/03/27 02:11:30;;;;;;;;;;;;;;;21.88;34.43;98298.28;4098793;29;19929;-69
2024/03/27 02:13:31;;;;;;;;;;;;;;;21.87;34.69;98297.44;4099348;29;19929;-70
2024/03/27 02:15:32;;;;;;;;;;;;;;;21.85;34.86;98294.13;4099202;29;19944;-69
2024/03/27 02:17:33;;;;;;;;;;;;;;;21.84;34.72;98295.16;4098803;29;19948;-70
2024/03/27 02:19:34;;;;;;;;;;;;;;;21.85;34.38;98300.31;4099294;29;20309;-70
2024/03/27 02:21:36;;;;;;;;;;;;;;;21.86;34.51;98293.13;4099006;29;20415;-69
2024/03/27 02:23:43;;;;;;;;;;;;;;;21.87;34.35;98302.78;4099163;29;19922;-70
2024/03/27 02:25:44;;;;;;;;;;;;;;;21.86;34.70;98296.63;4098636;29;19926;-70
2024/03/27 02:27:46;;;;;;;;;;;;;;;21.86;34.44;98287.78;4099226;29;19922;-69
2024/03/27 02:29:47;;;;;;;;;;;;;;;21.86;34.70;98274.41;4099147;29;20317;-70
2024/03/27 02:31:48;;;;;;;;;;;;;;;21.85;34.58;98278.09;4098843;29;20437;-69
2024/03/27 02:33:49;;;;;;;;;;;;;;;21.84;34.89;98274.56;4082821;29;20026;-70
2024/03/27 02:35:50;;;;;;;;;;;;;;;21.82;34.65;98265.91;4098974;29;19964;-69
2024/03/27 02:37:50;;;;;;;;;;;;;;;21.81;34.64;98256.22;4098939;29;20362;-69
2024/03/27 02:39:51;;;;;;;;;;;;;;;21.80;34.44;98265.25;4098497;29;19930;-70
2024/03/27 02:41:53;;;;;;;;;;;;;;;21.78;34.79;98264.63;4098861;29;19926;-70
2024/03/27 02:43:54;;;;;;;;;;;;;;;21.79;34.83;98268.13;4098733;29;19933;-69
2024/03/27 02:45:55;;;;;;;;;;;;;;;21.78;34.73;98274.50;4099004;29;19926;-70
2024/03/27 02:47:56;;;;;;;;;;;;;;;21.81;34.42;98282.97;4098739;29;19922;-69
2024/03/27 02:49:56;;;;;;;;;;;;;;;21.81;34.77;98277.63;4098920;29;20021;-70
2024/03/27 02:51:57;;;;;;;;;;;;;;;21.81;34.64;98282.13;4098521;29;20333;-70
2024/03/27 02:53:58;;;;;;;;;;;;;;;21.82;34.71;98283.81;4098308;29;19923;-70
2024/03/27 02:55:59;;;;;;;;;;;;;;;21.81;34.85;98274.97;4098492;29;19969;-71
2024/03/27 02:58:00;;;;;;;;;;;;;;;21.79;34.61;98282.34;4098737;28;20021;-70
2024/03/27 03:00:00;;;;;;;;;;;;;;;21.78;34.48;98286.03;4098474;29;19973;-70
2024/03/27 03:02:01;;;;;;;;;;;;;;;21.76;34.59;98282.69;4098678;29;19961;-70
2024/03/27 03:04:02;;;;;;;;;;;;;;;21.75;34.63;98283.72;4098558;29;19969;-70
2024/03/27 03:06:03;;;;;;;;;;;;;;;21.74;34.67;98281.22;4082570;29;19923;-70
2024/03/27 03:08:04;;;;;;;;;;;;;;;21.73;34.92;98280.41;4098200;29;19927;-70
2024/03/27 03:10:05;;;;;;;;;;;;;;;21.72;34.75;98285.94;4098519;29;19922;-70
2024/03/27 03:12:06;;;;;;;;;;;;;;;21.72;34.66;98270.72;4098430;29;19922;-70
2024/03/27 03:14:07;;;;;;;;;;;;;;;21.73;34.85;98260.88;4098407;29;19926;-71
2024/03/27 03:16:09;;;;;;;;;;;;;;;21.76;34.40;98266.63;4098508;29;19953;-70
2024/03/27 03:18:10;;;;;;;;;;;;;;;21.77;34.43;98262.13;4098137;29;19937;-72
2024/03/27 03:20:12;;;;;;;;;;;;;;;21.78;34.65;98258.44;4098384;29;19972;-70
2024/03/27 03:22:13;;;;;;;;;;;;;;;21.76;34.50;98255.13;4097821;29;19926;-70
2024/03/27 03:24:14;;;;;;;;;;;;;;;21.74;34.87;98249.97;4098442;29;20005;-69
2024/03/27 03:26:14;;;;;;;;;;;;;;;21.74;34.44;98251.78;4098629;29;19937;-70
2024/03/27 03:28:15;;;;;;;;;;;;;;;21.73;34.57;98253.66;4098365;29;19933;-70
2024/03/27 03:30:16;;;;;;;;;;;;;;;21.73;34.76;98256.34;4098120;29;19969;-70
2024/03/27 03:32:17;;;;;;;;;;;;;;;21.72;34.56;98246.63;4098244;29;20405;-70
2024/03/27 03:34:18;;;;;;;;;;;;;;;21.70;34.74;98243.31;4098168;29;19922;-70
2024/03/27 03:36:19;;;;;;;;;;;;;;;21.69;34.39;98230.97;4098339;29;19929;-70
2024/03/27 03:38:20;;;;;;;;;;;;;;;21.70;34.59;98235.28;4097680;29;19928;-71
2024/03/27 03:40:21;;;;;;;;;;;;;;;21.72;34.79;98237.81;4098473;29;19922;-70
2024/03/27 03:42:22;;;;;;;;;;;;;;;21.73;34.70;98231.44;4098237;29;20303;-70
2024/03/27 03:44:23;;;;;;;;;;;;;;;21.73;34.53;98229.56;4098258;29;19973;-71
2024/03/27 03:46:24;;;;;;;;;;;;;;;21.73;34.46;98226.91;4098129;29;19935;-71
2024/03/27 03:48:25;;;;;;;;;;;;;;;21.73;34.67;98229.56;4098100;29;20440;-70
2024/03/27 03:50:26;;;;;;;;;;;;;;;21.71;34.42;98223.56;4098030;29;20401;-71
2024/03/27 03:52:27;;;;;;;;;;;;;;;21.70;34.64;98225.44;4097912;29;19922;-70
2024/03/27 03:54:28;;;;;;;;;;;;;;;21.68;34.71;98224.78;4098134;29;20414;-70
2024/03/27 03:56:29;;;;;;;;;;;;;;;21.67;34.65;98216.97;4098003;29;19923;-71
2024/03/27 03:58:30;;;;;;;;;;;;;;;21.65;34.46;98209.13;4098214;29;20456;-70
2024/03/27 04:00:31;;;;;;;;;;;;;;;21.65;34.52;98201.09;4097792;29;19962;-70
2024/03/27 04:02:31;;;;;;;;;;;;;;;21.64;34.50;98202.13;4097996;29;20297;-70
2024/03/27 04:04:32;;;;;;;;;;;;;;;21.63;34.46;98213.81;4098034;29;19965;-70
2024/03/27 04:06:33;;;;;;;;;;;;;;;21.66;34.66;98212.63;4097630;29;20333;-70
2024/03/27 04:08:34;;;;;;;;;;;;;;;21.67;34.61;98209.75;4097905;29;20013;-71
2024/03/27 04:10:41;;;;;;;;;;;;;;;21.68;34.37;98213.28;4098980;28;19926;-71
2024/03/27 04:12:41;;;;;;;;;;;;;;;21.67;34.56;98231.16;4101254;29;19922;-70
2024/03/27 04:14:43;;;;;;;;;;;;;;;21.69;34.67;98236.34;4101231;29;19930;-70
2024/03/27 04:16:44;;;;;;;;;;;;;;;21.67;34.50;98239.19;4100845;29;19923;-70
2024/03/27 04:18:45;;;;;;;;;;;;;;;21.66;34.35;98236.69;4100699;29;19927;-71
2024/03/27 04:20:45;;;;;;;;;;;;;;;21.65;34.41;98243.06;4100502;29;20329;-70
2024/03/27 04:22:46;;;;;;;;;;;;;;;21.65;34.58;98230.53;4100978;29;19929;-70
2024/03/27 04:24:47;;;;;;;;;;;;;;;21.63;34.67;98227.19;4100985;29;20358;-69
2024/03/27 04:26:50;;;;;;;;;;;;;;;21.62;34.47;98224.72;4100727;29;19930;-70
2024/03/27 04:28:51;;;;;;;;;;;;;;;21.61;34.75;98229.22;4101022;29;19929;-68
2024/03/27 04:30:55;;;;;;;;;;;;;;;21.61;34.71;98225.75;4100707;29;20402;-70
2024/03/27 04:32:56;;;;;;;;;;;;;;;21.61;34.56;98218.53;4100731;29;19923;-71
2024/03/27 04:34:57;;;;;;;;;;;;;;;21.63;34.53;98223.69;4100301;29;19940;-70
2024/03/27 04:36:58;;;;;;;;;;;;;;;21.64;34.63;98217.31;4100573;29;20028;-69
2024/03/27 04:38:59;;;;;;;;;;;;;;;21.65;34.37;98222.50;4100681;29;19923;-70
2024/03/27 04:41:01;;;;;;;;;;;;;;;21.66;34.45;98221.47;4100516;29;20437;-70
2024/03/27 04:43:03;;;;;;;;;;;;;;;21.66;34.47;98217.97;4100706;29;19929;-70
2024/03/27 04:45:04;;;;;;;;;;;;;;;21.64;34.65;98220.00;4084619;29;20413;-70
2024/03/27 04:47:05;;;;;;;;;;;;;;;21.63;34.40;98211.16;4100565;29;19926;-69
2024/03/27 04:49:06;;;;;;;;;;;;;;;21.60;34.40;98208.84;4100191;29;20280;-70
2024/03/27 04:51:07;;;;;;;;;;;;;;;21.60;34.67;98214.19;4100740;29;20385;-70
2024/03/27 04:53:07;;;;;;;;;;;;;;;21.59;34.47;98217.88;4100417;29;19995;-70
2024/03/27 04:55:09;;;;;;;;;;;;;;;21.58;34.56;98208.22;4100602;29;19945;-69
2024/03/27 04:57:09;;;;;;;;;;;;;;;21.57;34.38;98225.28;4100331;29;19928;-69
2024/03/27 04:59:10;;;;;;;;;;;;;;;21.58;34.63;98234.13;4100584;29;19977;-69
2024/03/27 05:01:11;;;;;;;;;;;;;;;21.60;34.59;98232.09;4100190;29;19923;-69
2024/03/27 05:03:12;;;;;;;;;;;;;;;21.60;34.59;98224.88;4100354;29;20001;-70
2024/03/27 05:05:12;;;;;;;;;;;;;;;21.63;34.55;98231.69;4100097;29;19962;-69
2024/03/27 05:07:13;;;;;;;;;;;;;;;21.62;34.20;98228.22;4100213;29;19922;-69
2024/03/27 05:09:14;;;;;;;;;;;;;;;21.62;34.26;98220.19;4100298;29;19923;-70
2024/03/27 05:11:15;;;;;;;;;;;;;;;21.61;34.40;98213.19;4100055;29;20306;-70
2024/03/27 05:13:16;;;;;;;;;;;;;;;21.61;34.46;98207.00;4100279;29;20020;-70
2024/03/27 05:15:16;;;;;;;;;;;;;;;21.60;34.28;98216.06;4100087;29;20354;-69
2024/03/27 05:17:17;;;;;;;;;;;;;;;21.58;34.31;98226.94;4099942;29;19923;-69
2024/03/27 05:19:19;;;;;;;;;;;;;;;21.56;34.11;98231.59;4084216;29;19930;-70
2024/03/27 05:21:20;;;;;;;;;;;;;;;21.55;34.43;98238.78;4099670;28;19923;-69
2024/03/27 05:23:21;;;;;;;;;;;;;;;21.54;34.63;98236.31;4099293;29;19965;-68
2024/03/27 05:25:21;;;;;;;;;;;;;;;21.54;34.46;98236.31;4100079;29;19922;-68
2024/03/27 05:27:23;;;;;;;;;;;;;;;21.54;34.56;98239.81;4099861;29;20337;-69
2024/03/27 05:29:24;;;;;;;;;;;;;;;21.58;34.45;98234.13;4099890;29;19923;-68
2024/03/27 05:31:25;;;;;;;;;;;;;;;21.59;34.54;98233.94;4099909;29;19926;-69
2024/03/27 05:33:26;;;;;;;;;;;;;;;21.59;34.49;98230.44;4099465;29;19923;-69
2024/03/27 05:35:27;;;;;;;;;;;;;;;21.58;34.31;98236.78;4100089;29;19946;-70
2024/03/27 05:37:28;;;;;;;;;;;;;;;21.58;34.30;98234.97;4099708;29;19928;-70
2024/03/27 05:39:29;;;;;;;;;;;;;;;21.57;34.32;98241.31;4099927;29;19926;-70
2024/03/27 05:41:30;;;;;;;;;;;;;;;21.57;34.35;98246.69;4099996;29;19970;-69
2024/03/27 05:43:30;;;;;;;;;;;;;;;21.56;34.36;98242.31;4099781;29;20397;-70
2024/03/27 05:45:31;;;;;;;;;;;;;;;21.54;34.49;98242.50;4099824;29;19922;-70
2024/03/27 05:47:32;;;;;;;;;;;;;;;21.53;34.34;98246.19;4099332;29;19930;-69
2024/03/27 05:49:33;;;;;;;;;;;;;;;21.52;34.52;98257.91;4099899;29;20269;-69
2024/03/27 05:51:34;;;;;;;;;;;;;;;21.51;34.47;98250.06;4099735;29;19930;-69
2024/03/27 05:53:35;;;;;;;;;;;;;;;21.51;34.38;98255.41;4099834;29;20322;-70
2024/03/27 05:55:36;;;;;;;;;;;;;;;21.53;34.26;98253.38;4099542;29;19933;-70
2024/03/27 05:57:37;;;;;;;;;;;;;;;21.53;34.52;98258.72;4099616;29;19929;-70
2024/03/27 05:59:37;;;;;;;;;;;;;;;21.52;34.50;98252.53;4099773;29;19929;-68
2024/03/27 06:01:39;;;;;;;;;;;;;;;21.53;34.47;98256.03;4099373;29;19922;-69
2024/03/27 06:03:39;;;;;;;;;;;;;;;21.52;34.26;98257.91;4099631;29;20008;-70
2024/03/27 06:05:40;;;;;;;;;;;;;;;21.53;34.51;98261.38;4099612;29;19929;-71
2024/03/27 06:07:41;;;;;;;;;;;;;;;21.53;34.05;98264.91;4099165;29;19922;-69
2024/03/27 06:09:42;;;;;;;;;;;;;;;21.51;34.39;98263.44;4099543;29;19922;-69
2024/03/27 06:11:43;;;;;;;;;;;;;;;21.50;34.44;98270.63;4099308;29;19922;-70
2024/03/27 06:13:44;;;;;;;;;;;;;;;21.50;34.40;98273.28;4099318;29;20382;-69
2024/03/27 06:15:45;;;;;;;;;;;;;;;21.47;34.34;98271.00;4099582;29;20013;-70
2024/03/27 06:17:46;;;;;;;;;;;;;;;21.48;34.33;98266.47;4098739;29;19922;-70
2024/03/27 06:19:46;;;;;;;;;;;;;;;21.48;34.44;98274.50;4099427;29;19993;-71
2024/03/27 06:21:47;;;;;;;;;;;;;;;21.48;34.29;98272.66;4099203;29;20340;-70
2024/03/27 06:23:48;;;;;;;;;;;;;;;21.51;34.47;98274.94;4099235;29;19922;-70
2024/03/27 06:26:00;;;;;;;;;;;;;;;21.53;34.20;98272.09;4099179;29;19974;-70
2024/03/27 06:28:00;;;;;;;;;;;;;;;21.51;34.45;98274.94;4099202;29;19929;-70
2024/03/27 06:30:01;;;;;;;;;;;;;;;21.51;34.40;98279.47;4099219;29;20426;-71
2024/03/27 06:32:02;;;;;;;;;;;;;;;21.52;34.37;98278.47;4098906;29;19961;-70
2024/03/27 06:34:03;;;;;;;;;;;;;;;21.52;34.11;98287.31;4099021;28;19923;-69
2024/03/27 06:36:04;;;;;;;;;;;;;;;21.52;34.45;98281.16;4098955;29;20450;-70
2024/03/27 06:38:05;;;;;;;;;;;;;;;21.49;34.39;98285.00;4099111;29;19932;-70
2024/03/27 06:40:09;;;;;;;;;;;;;;;21.48;34.36;98288.72;4098774;29;20418;-70
2024/03/27 06:42:10;;;;;;;;;;;;;;;21.47;34.32;98288.88;4098960;29;19922;-70
2024/03/27 06:44:11;;;;;;;;;;;;;;;21.45;34.46;98286.38;4098927;29;19929;-69
2024/03/27 06:46:13;;;;;;;;;;;;;;;21.47;34.40;98288.88;4098326;29;19922;-70
2024/03/27 06:48:15;;;;;;;;;;;;;;;21.46;34.02;98292.56;4099028;29;19933;-70
2024/03/27 06:50:16;;;;;;;;;;;;;;;21.47;34.35;98295.06;4098585;29;19926;-69
2024/03/27 06:52:19;;;;;;;;;;;;;;;21.49;34.33;98297.53;4098633;29;19922;-70
2024/03/27 06:54:20;;;;;;;;;;;;;;;21.48;34.16;98299.41;4098617;29;19929;-70
2024/03/27 06:56:21;;;;;;;;;;;;;;;21.51;34.14;98298.19;4098832;29;19973;-70
2024/03/27 06:58:22;;;;;;;;;;;;;;;21.51;34.10;98293.66;4098488;29;19922;-70
2024/03/27 07:00:22;;;;;;;;;;;;;;;21.49;34.28;98293.00;4098166;29;19929;-69
2024/03/27 07:02:24;;;;;;;;;;;;;;;21.48;34.22;98295.88;4098399;29;19923;-69
2024/03/27 07:04:25;;;;;;;;;;;;;;;21.47;33.86;98296.91;4098511;29;19923;-69
2024/03/27 07:06:27;;;;;;;;;;;;;;;21.46;34.34;98285.38;4098430;29;19922;-69
2024/03/27 07:08:28;;;;;;;;;;;;;;;21.45;34.33;98288.25;4098404;29;19922;-70
2024/03/27 07:10:28;;;;;;;;;;;;;;;21.43;34.09;98285.75;4098550;29;19922;-69
2024/03/27 07:12:29;;;;;;;;;;;;;;;21.42;34.22;98285.94;4098499;29;19944;-68
2024/03/27 07:14:30;;;;;;;;;;;;;;;21.44;33.98;98294.59;4098061;29;20021;-69
2024/03/27 07:16:31;;;;;;;;;;;;;;;21.44;34.18;98292.75;4098627;29;20018;-68
2024/03/27 07:18:32;;;;;;;;;;;;;;;21.45;34.04;98297.09;4098301;29;19922;-68
2024/03/27 07:20:33;;;;;;;;;;;;;;;21.45;34.22;98302.44;4098471;29;19926;-68
2024/03/27 07:22:33;;;;;;;;;;;;;;;21.45;34.14;98298.94;4098122;29;19962;-68
2024/03/27 07:24:34;;;;;;;;;;;;;;;21.45;34.14;98283.72;4098503;29;19922;-70
2024/03/27 07:26:38;;;;;;;;;;;;;;;21.47;34.13;98291.53;4098407;29;20429;-68
2024/03/27 07:28:39;;;;;;;;;;;;;;;21.47;34.17;98280.84;4097962;29;19922;-71
2024/03/27 07:30:40;;;;;;;;;;;;;;;21.45;34.06;98289.06;4098447;29;19984;-69
2024/03/27 07:32:41;;;;;;;;;;;;;;;21.45;34.08;98288.25;4098223;29;20374;-69
2024/03/27 07:34:42;;;;;;;;;;;;;;;21.43;34.04;98292.94;4098493;29;19922;-69
2024/03/27 07:36:43;;;;;;;;;;;;;;;21.43;33.94;98293.75;4098500;29;20289;-68
2024/03/27 07:38:44;;;;;;;;;;;;;;;21.45;34.14;98290.94;4098457;29;19922;-68
2024/03/27 07:40:46;;;;;;;;;;;;;;;21.44;33.90;98302.63;4098364;29;20017;-69
2024/03/27 07:42:47;;;;;;;;;;;;;;;21.44;34.00;98298.09;4098102;29;19984;-69
2024/03/27 07:44:48;;;;;;;;;;;;;;;21.47;33.74;98294.22;4097806;28;19961;-69
2024/03/27 07:46:49;;;;;;;;;;;;;;;21.46;33.65;98276.50;4101236;29;19923;-70
2024/03/27 07:48:52;;;;;;;;;;;;;;;21.44;33.75;98275.88;4101775;29;19981;-69
2024/03/27 07:50:53;;;;;;;;;;;;;;;21.43;33.78;98274.22;4101396;29;19922;-69
2024/03/27 07:52:54;;;;;;;;;;;;;;;21.42;33.97;98270.69;4085464;29;19949;-69
2024/03/27 07:54:54;;;;;;;;;;;;;;;21.41;33.99;98265.56;4101606;29;19965;-69
2024/03/27 07:57:06;;;;;;;;;;;;;;;21.41;33.68;98260.19;4101204;29;19933;-70
2024/03/27 07:59:06;;;;;;;;;;;;;;;21.41;33.76;98260.19;4085131;29;19922;-69
2024/03/27 08:01:08;;;;;;;;;;;;;;;21.41;33.67;98266.41;4101488;29;19973;-69
2024/03/27 08:03:08;;;;;;;;;;;;;;;21.42;33.68;98262.69;4101456;29;20329;-69
2024/03/27 08:05:09;;;;;;;;;;;;;;;21.41;33.45;98263.72;4101360;29;20025;-69
2024/03/27 08:07:10;;;;;;;;;;;;;;;21.42;33.65;98253.84;4101126;29;20016;-70
2024/03/27 08:09:11;;;;;;;;;;;;;;;21.42;33.43;98256.53;4101150;29;19922;-70
2024/03/27 08:11:12;;;;;;;;;;;;;;;21.42;33.97;98265.34;4101139;29;19922;-69
2024/03/27 08:13:13;;;;;;;;;;;;;;;21.42;33.85;98267.22;4084825;29;20429;-69
2024/03/27 08:15:14;;;;;;;;;;;;;;;21.41;33.89;98271.75;4101158;29;19928;-69
2024/03/27 08:17:15;;;;;;;;;;;;;;;21.41;33.43;98277.09;4100864;29;20340;-69
2024/03/27 08:19:15;;;;;;;;;;;;;;;21.42;33.51;98270.69;4100893;29;19933;-69
2024/03/27 08:21:16;;;;;;;;;;;;;;;21.42;33.74;98280.59;4101158;29;19932;-70
2024/03/27 08:23:17;;;;;;;;;;;;;;;21.41;33.89;98284.28;4101150;29;19923;-69
2024/03/27 08:25:18;;;;;;;;;;;;;;;21.39;33.81;98290.63;4101122;29;19922;-71
2024/03/27 08:27:19;;;;;;;;;;;;;;;21.39;33.81;98295.97;4100666;29;19930;-70
2024/03/27 08:29:20;;;;;;;;;;;;;;;21.37;33.68;98299.84;4100949;29;19926;-69
2024/03/27 08:31:20;;;;;;;;;;;;;;;21.35;33.66;98292.00;4100818;29;19993;-70
2024/03/27 08:33:22;;;;;;;;;;;;;;;21.35;33.81;98299.19;4100734;29;19929;-69
2024/03/27 08:35:23;;;;;;;;;;;;;;;21.38;33.59;98309.53;4100794;29;19922;-70
2024/03/27 08:37:24;;;;;;;;;;;;;;;21.37;33.90;98305.19;4100601;29;19930;-70
2024/03/27 08:39:26;;;;;;;;;;;;;;;21.38;33.75;98304.19;4101044;29;19933;-68
2024/03/27 08:41:27;;;;;;;;;;;;;;;21.39;33.70;98305.84;4100277;29;19928;-69
2024/03/27 08:43:28;;;;;;;;;;;;;;;21.38;33.83;98305.00;4100782;29;20457;-70
2024/03/27 08:45:29;;;;;;;;;;;;;;;21.39;33.66;98312.00;4100541;29;19922;-69
2024/03/27 08:47:30;;;;;;;;;;;;;;;21.37;33.78;98306.03;4100800;29;19923;-69
2024/03/27 08:49:31;;;;;;;;;;;;;;;21.37;33.55;98305.19;4100670;29;19922;-70
2024/03/27 08:51:32;;;;;;;;;;;;;;;21.35;33.47;98302.72;4084673;29;20346;-69
2024/03/27 08:53:33;;;;;;;;;;;;;;;21.34;33.83;98306.41;4097517;29;19994;-69
2024/03/27 08:55:38;;;;;;;;;;;;;;;21.35;33.60;98323.25;4100113;29;19927;-66
2024/03/27 08:57:39;;;;;;;;;;;;;;;21.35;33.65;98318.75;4100899;28;19927;-66
2024/03/27 08:59:40;;;;;;;;;;;;;;;21.37;33.42;98311.38;4093409;28;19927;-65
2024/03/27 09:01:41;;;;;;;;;;;;;;;21.33;34.11;98317.28;4091397;28;19932;-65
2024/03/27 09:03:42;;;;;;;;;;;;;;;21.30;33.56;98322.97;4100305;28;19937;-63
2024/03/27 09:05:43;;;;;;;;;;;;;;;21.23;33.95;98317.53;4103686;28;19934;-63
2024/03/27 09:07:44;;;;;;;;;;;;;;;21.23;33.42;98322.91;4082241;29;20398;-63
2024/03/27 09:09:45;;;;;;;;;;;;;;;21.19;33.45;98325.09;4102284;28;19976;-65
2024/03/27 09:11:45;;;;;;;;;;;;;;;21.19;33.20;98326.94;4103273;28;20118;-65
2024/03/27 09:13:46;;;;;;;;;;;;;;;21.19;32.83;98341.13;4101022;28;19926;-65
2024/03/27 09:15:48;;;;;;;;;;;;;;;21.18;32.66;98346.66;4098571;29;19930;-66
2024/03/27 09:17:48;;;;;;;;;;;;;;;21.12;32.64;98358.06;4092788;29;20344;-67
2024/03/27 09:19:50;;;;;;;;;;;;;;;21.06;32.69;98354.28;4099440;28;20017;-65
2024/03/27 09:21:51;;;;;;;;;;;;;;;21.05;32.69;98353.44;4098821;29;19922;-67
2024/03/27 09:23:52;;;;;;;;;;;;;;;21.05;32.42;98353.44;4099069;29;19929;-64
2024/03/27 09:25:53;;;;;;;;;;;;;;;21.00;32.38;98360.38;4098438;29;20410;-66
2024/03/27 09:27:54;;;;;;;;;;;;;;;20.99;32.31;98362.19;4098850;29;19926;-66
2024/03/27 09:29:55;;;;;;;;;;;;;;;20.93;32.40;98360.22;4098972;29;19922;-68
2024/03/27 09:31:56;;;;;;;;;;;;;;;20.91;32.76;98362.25;4100515;28;20460;-67
2024/03/27 09:33:56;;;;;;;;;;;;;;;20.87;32.53;98358.28;4098885;29;19923;-67
2024/03/27 09:35:57;;;;;;;;;;;;;;;20.79;32.59;98363.69;4099067;28;19923;-66
2024/03/27 09:37:58;;;;;;;;;;;;;;;20.75;32.82;98368.56;4098621;29;20381;-67
2024/03/27 09:39:59;;;;;;;;;;;;;;;20.75;32.64;98373.91;4098545;29;20008;-66
2024/03/27 09:42:02;;;;;;;;;;;;;;;20.73;32.71;98373.25;4098468;29;19945;-66
2024/03/27 09:44:06;;;;;;;;;;;;;;;20.69;32.57;98362.06;4096594;29;19922;-66
2024/03/27 09:46:08;;;;;;;;;;;;;;;20.67;32.70;98369.41;4098932;29;19932;-66
2024/03/27 09:48:10;;;;;;;;;;;;;;;20.67;32.55;98368.56;4098735;29;20008;-66
2024/03/27 09:50:10;;;;;;;;;;;;;;;20.64;32.70;98364.41;4098675;29;19928;-65
2024/03/27 09:52:12;;;;;;;;;;;;;;;20.69;33.03;98366.56;4098731;29;20324;-64
2024/03/27 09:54:13;;;;;;;;;;;;;;;20.66;32.83;98375.75;4098113;29;19926;-65
2024/03/27 09:56:14;;;;;;;;;;;;;;;20.71;32.50;98370.72;4098409;29;19922;-64
2024/03/27 09:58:15;;;;;;;;;;;;;;;20.64;32.61;98371.63;4098415;29;19949;-64
2024/03/27 10:00:16;;;;;;;;;;;;;;;20.61;33.18;98372.81;4095727;28;19926;-61
2024/03/27 10:02:17;;;;;;;;;;;;;;;20.55;33.25;98371.66;4092961;28;20009;-70
2024/03/27 10:04:18;;;;;;;;;;;;;;;20.65;33.16;98371.44;4100084;28;20475;-70
2024/03/27 10:06:19;;;;;;;;;;;;;;;20.65;32.90;98371.44;4096665;28;19933;-67
2024/03/27 10:08:20;;;;;;;;;;;;;;;20.62;33.02;98371.81;4095431;28;19926;-68
2024/03/27 10:10:21;;;;;;;;;;;;;;;20.59;33.18;98364.94;4102275;28;20398;-63
2024/03/27 10:12:22;;;;;;;;;;;;;;;20.59;32.92;98370.28;4114063;28;19928;-62
2024/03/27 10:14:23;;;;;;;;;;;;;;;20.56;33.03;98368.00;4100761;28;19923;-66
2024/03/27 10:16:25;;;;;;;;;;;;;;;20.50;33.10;98360.69;4082120;29;20040;-67
2024/03/27 10:18:26;;;;;;;;;;;;;;;20.50;33.10;98366.03;4097801;29;19928;-66
2024/03/27 10:20:26;;;;;;;;;;;;;;;20.46;32.93;98359.34;4107007;28;19926;-68
2024/03/27 10:22:29;;;;;;;;;;;;;;;20.45;33.12;98363.06;4097787;29;19958;-63
2024/03/27 10:24:30;;;;;;;;;;;;;;;20.46;33.18;98354.03;4097324;29;19929;-63
2024/03/27 10:26:31;;;;;;;;;;;;;;;20.53;32.58;98371.00;4081991;29;19922;-63
2024/03/27 10:28:35;;;;;;;;;;;;;;;20.53;32.58;98362.16;4081962;29;19958;-68
2024/03/27 10:30:36;;;;;;;;;;;;;;;20.54;32.30;98379.84;4098265;29;19922;-67